sensor_id;sensor_type;location;lat;lon;timestamp;temperature;humidity
25568;DHT22;13455;51.480;7.594;2022-08-19T00:19:38;18.90;99.90
25568;DHT22;13455;51.480;7.594;2022-08-19T00:22:04;18.80;99.90
25568;DHT22;13455;51.480;7.594;2022-08-19T00:24:31;18.80;99.90
25568;DHT22;13455;51.480;7.594;2022-08-19T00:26:57;18.70;99.90
25568;DHT22;13455;51.480;7.594;2022-08-19T00:29:24;18.70;99.90
25568;DHT22;13455;51.480;7.594;2022-08-19T00:32:09;18.70;99.90
25568;DHT22;13455;51.480;7.594;2022-08-19T00:34:39;18.70;99.90
25568;DHT22;13455;51.480;7.594;2022-08-19T00:37:05;18.70;99.90
25568;DHT22;13455;51.480;7.594;2022-08-19T00:39:31;18.70;99.90
25568;DHT22;13455;51.480;7.594;2022-08-19T00:41:57;18.60;99.90
25568;DHT22;13455;51.480;7.594;2022-08-19T00:44:28;18.60;99.90
25568;DHT22;13455;51.480;7.594;2022-08-19T02:30:19;17.90;99.90
25568;DHT22;13455;51.480;7.594;2022-08-19T02:35:13;17.80;99.90
25568;DHT22;13455;51.480;7.594;2022-08-19T02:37:40;17.90;99.90
25568;DHT22;13455;51.480;7.594;2022-08-19T02:40:25;17.90;99.90
25568;DHT22;13455;51.480;7.594;2022-08-19T02:42:51;17.70;99.90
25568;DHT22;13455;51.480;7.594;2022-08-19T02:45:17;17.80;99.90
25568;DHT22;13455;51.480;7.594;2022-08-19T02:47:43;17.70;99.90
25568;DHT22;13455;51.480;7.594;2022-08-19T02:50:09;17.70;99.90
25568;DHT22;13455;51.480;7.594;2022-08-19T02:52:35;17.70;99.90
25568;DHT22;13455;51.480;7.594;2022-08-19T02:55:01;17.70;99.90
25568;DHT22;13455;51.480;7.594;2022-08-19T02:57:27;17.60;99.90
25568;DHT22;13455;51.480;7.594;2022-08-19T02:59:53;17.60;99.90
25568;DHT22;13455;51.480;7.594;2022-08-19T03:02:19;17.50;99.90
25568;DHT22;13455;51.480;7.594;2022-08-19T03:04:45;17.50;99.90
25568;DHT22;13455;51.480;7.594;2022-08-19T03:07:14;17.50;99.90
25568;DHT22;13455;51.480;7.594;2022-08-19T03:09:40;17.40;99.90
25568;DHT22;13455;51.480;7.594;2022-08-19T03:12:06;17.40;99.90
25568;DHT22;13455;51.480;7.594;2022-08-19T03:14:32;17.40;99.90
25568;DHT22;13455;51.480;7.594;2022-08-19T03:19:25;17.30;99.90
25568;DHT22;13455;51.480;7.594;2022-08-19T03:21:51;17.30;99.90
25568;DHT22;13455;51.480;7.594;2022-08-19T03:24:18;17.30;99.90
25568;DHT22;13455;51.480;7.594;2022-08-19T03:26:50;17.30;99.90
25568;DHT22;13455;51.480;7.594;2022-08-19T03:29:17;17.30;99.90
25568;DHT22;13455;51.480;7.594;2022-08-19T03:31:44;17.20;99.90
25568;DHT22;13455;51.480;7.594;2022-08-19T03:34:12;17.20;99.90
25568;DHT22;13455;51.480;7.594;2022-08-19T03:36:39;17.20;99.90
25568;DHT22;13455;51.480;7.594;2022-08-19T03:39:04;17.30;99.90
25568;DHT22;13455;51.480;7.594;2022-08-19T03:41:33;17.20;99.90
25568;DHT22;13455;51.480;7.594;2022-08-19T03:44:02;17.80;99.90
25568;DHT22;13455;51.480;7.594;2022-08-19T03:46:30;17.30;99.90
25568;DHT22;13455;51.480;7.594;2022-08-19T03:48:57;17.20;99.90
25568;DHT22;13455;51.480;7.594;2022-08-19T03:51:25;17.20;99.90
25568;DHT22;13455;51.480;7.594;2022-08-19T03:53:53;17.20;99.90
25568;DHT22;13455;51.480;7.594;2022-08-19T03:56:20;17.20;99.90
25568;DHT22;13455;51.480;7.594;2022-08-19T03:58:46;17.20;99.90
25568;DHT22;13455;51.480;7.594;2022-08-19T04:01:17;17.20;99.90
25568;DHT22;13455;51.480;7.594;2022-08-19T04:03:44;17.10;99.90
25568;DHT22;13455;51.480;7.594;2022-08-19T04:08:45;17.00;99.90
25568;DHT22;13455;51.480;7.594;2022-08-19T04:11:17;17.30;99.90
25568;DHT22;13455;51.480;7.594;2022-08-19T04:13:43;17.00;99.90
25568;DHT22;13455;51.480;7.594;2022-08-19T04:16:10;17.10;99.90
25568;DHT22;13455;51.480;7.594;2022-08-19T04:18:37;17.10;99.90
25568;DHT22;13455;51.480;7.594;2022-08-19T04:21:03;17.50;99.90
25568;DHT22;13455;51.480;7.594;2022-08-19T04:23:30;17.10;99.90
25568;DHT22;13455;51.480;7.594;2022-08-19T04:25:56;17.00;99.90
25568;DHT22;13455;51.480;7.594;2022-08-19T04:28:23;16.90;99.90
25568;DHT22;13455;51.480;7.594;2022-08-19T04:30:51;17.00;99.90
25568;DHT22;13455;51.480;7.594;2022-08-19T04:33:20;17.10;99.90
25568;DHT22;13455;51.480;7.594;2022-08-19T06:10:56;17.80;99.90
25568;DHT22;13455;51.480;7.594;2022-08-19T06:15:51;17.80;99.90
25568;DHT22;13455;51.480;7.594;2022-08-19T06:20:50;17.80;99.90
25568;DHT22;13455;51.480;7.594;2022-08-19T06:28:11;17.80;99.90
25568;DHT22;13455;51.480;7.594;2022-08-19T06:30:37;18.00;99.90
25568;DHT22;13455;51.480;7.594;2022-08-19T06:33:02;18.00;99.90
25568;DHT22;13455;51.480;7.594;2022-08-19T06:35:28;17.80;99.90
25568;DHT22;13455;51.480;7.594;2022-08-19T06:37:55;18.10;99.90
25568;DHT22;13455;51.480;7.594;2022-08-19T06:40:21;18.10;99.90
25568;DHT22;13455;51.480;7.594;2022-08-19T06:45:13;18.00;99.90
25568;DHT22;13455;51.480;7.594;2022-08-19T06:50:11;18.10;99.90
25568;DHT22;13455;51.480;7.594;2022-08-19T06:52:37;18.10;99.90
25568;DHT22;13455;51.480;7.594;2022-08-19T06:55:05;18.20;99.90
25568;DHT22;13455;51.480;7.594;2022-08-19T06:59:58;18.50;99.90
25568;DHT22;13455;51.480;7.594;2022-08-19T07:02:25;18.50;99.90
25568;DHT22;13455;51.480;7.594;2022-08-19T07:04:52;18.40;99.90
25568;DHT22;13455;51.480;7.594;2022-08-19T07:07:19;18.50;99.90
25568;DHT22;13455;51.480;7.594;2022-08-19T07:09:45;18.60;99.90
25568;DHT22;13455;51.480;7.594;2022-08-19T07:12:13;18.80;99.90
25568;DHT22;13455;51.480;7.594;2022-08-19T07:14:41;19.10;99.90
25568;DHT22;13455;51.480;7.594;2022-08-19T07:17:09;19.50;99.90
25568;DHT22;13455;51.480;7.594;2022-08-19T07:19:37;19.50;99.90
25568;DHT22;13455;51.480;7.594;2022-08-19T07:22:06;19.50;99.90
25568;DHT22;13455;51.480;7.594;2022-08-19T07:24:32;20.20;99.90
25568;DHT22;13455;51.480;7.594;2022-08-19T07:29:29;20.40;99.90
25568;DHT22;13455;51.480;7.594;2022-08-19T07:31:57;20.60;99.90
25568;DHT22;13455;51.480;7.594;2022-08-19T07:34:24;21.10;99.90
25568;DHT22;13455;51.480;7.594;2022-08-19T07:36:51;21.10;99.90
25568;DHT22;13455;51.480;7.594;2022-08-19T07:39:21;21.40;99.90
25568;DHT22;13455;51.480;7.594;2022-08-19T07:44:20;21.70;99.90
25568;DHT22;13455;51.480;7.594;2022-08-19T07:46:52;21.90;99.90
25568;DHT22;13455;51.480;7.594;2022-08-19T07:57:08;22.50;99.90
25568;DHT22;13455;51.480;7.594;2022-08-19T08:02:00;23.10;99.90
25568;DHT22;13455;51.480;7.594;2022-08-19T08:12:29;23.80;99.90
25568;DHT22;13455;51.480;7.594;2022-08-19T08:22:18;24.20;99.90
25568;DHT22;13455;51.480;7.594;2022-08-19T08:39:55;25.50;99.90
25568;DHT22;13455;51.480;7.594;2022-08-19T08:47:32;25.90;99.90
25568;DHT22;13455;51.480;7.594;2022-08-19T09:00:30;26.60;99.90
25568;DHT22;13455;51.480;7.594;2022-08-19T09:02:58;26.60;99.90
25568;DHT22;13455;51.480;7.594;2022-08-19T09:05:39;26.80;99.90
25568;DHT22;13455;51.480;7.594;2022-08-19T09:11:31;27.00;99.90
25568;DHT22;13455;51.480;7.594;2022-08-19T09:16:57;27.40;99.90
25568;DHT22;13455;51.480;7.594;2022-08-19T09:31:36;28.00;99.90
25568;DHT22;13455;51.480;7.594;2022-08-19T09:34:02;27.90;99.90
25568;DHT22;13455;51.480;7.594;2022-08-19T09:36:30;27.90;99.90
25568;DHT22;13455;51.480;7.594;2022-08-19T09:39:02;28.00;99.90
25568;DHT22;13455;51.480;7.594;2022-08-19T09:41:28;28.10;99.90
25568;DHT22;13455;51.480;7.594;2022-08-19T09:46:23;28.20;99.90
25568;DHT22;13455;51.480;7.594;2022-08-19T09:48:49;28.50;99.90
25568;DHT22;13455;51.480;7.594;2022-08-19T09:56:21;28.60;99.90
25568;DHT22;13455;51.480;7.594;2022-08-19T10:11:13;29.30;99.90
25568;DHT22;13455;51.480;7.594;2022-08-19T10:28:37;29.30;99.90
25568;DHT22;13455;51.480;7.594;2022-08-19T10:33:31;29.70;99.90
25568;DHT22;13455;51.480;7.594;2022-08-19T11:28:39;30.70;94.80
25568;DHT22;13455;51.480;7.594;2022-08-19T11:31:17;30.70;94.40
25568;DHT22;13455;51.480;7.594;2022-08-19T11:36:09;30.60;92.50
25568;DHT22;13455;51.480;7.594;2022-08-19T11:38:36;30.60;93.40
25568;DHT22;13455;51.480;7.594;2022-08-19T11:41:05;30.50;92.50
25568;DHT22;13455;51.480;7.594;2022-08-19T11:50:52;30.80;90.10
25568;DHT22;13455;51.480;7.594;2022-08-19T12:00:40;31.60;86.40
25568;DHT22;13455;51.480;7.594;2022-08-19T12:12:51;32.70;82.10
25568;DHT22;13455;51.480;7.594;2022-08-19T12:17:43;32.70;77.60
25568;DHT22;13455;51.480;7.594;2022-08-19T12:20:11;32.80;80.10
25568;DHT22;13455;51.480;7.594;2022-08-19T12:22:37;32.70;77.20
25568;DHT22;13455;51.480;7.594;2022-08-19T12:27:31;33.20;99.90
25568;DHT22;13455;51.480;7.594;2022-08-19T12:34:51;34.20;98.60
25568;DHT22;13455;51.480;7.594;2022-08-19T12:37:17;34.00;71.70
25568;DHT22;13455;51.480;7.594;2022-08-19T12:39:43;34.00;71.30
25568;DHT22;13455;51.480;7.594;2022-08-19T12:44:40;33.60;75.20
25568;DHT22;13455;51.480;7.594;2022-08-19T12:47:08;33.30;72.00
25568;DHT22;13455;51.480;7.594;2022-08-19T12:49:37;33.30;74.50
25568;DHT22;13455;51.480;7.594;2022-08-19T12:52:05;33.30;70.60
25568;DHT22;13455;51.480;7.594;2022-08-19T12:54:31;33.40;93.10
25568;DHT22;13455;51.480;7.594;2022-08-19T12:56:58;33.60;92.30
25568;DHT22;13455;51.480;7.594;2022-08-19T12:59:25;33.60;91.90
25568;DHT22;13455;51.480;7.594;2022-08-19T13:04:17;33.80;68.60
25568;DHT22;13455;51.480;7.594;2022-08-19T13:06:43;34.30;92.50
25568;DHT22;13455;51.480;7.594;2022-08-19T13:09:09;33.90;64.20
25568;DHT22;13455;51.480;7.594;2022-08-19T13:11:35;33.90;72.70
25568;DHT22;13455;51.480;7.594;2022-08-19T13:14:02;33.70;68.30
25568;DHT22;13455;51.480;7.594;2022-08-19T13:16:29;33.80;67.00
25568;DHT22;13455;51.480;7.594;2022-08-19T13:18:55;33.80;62.90
25568;DHT22;13455;51.480;7.594;2022-08-19T13:21:24;33.60;63.50
25568;DHT22;13455;51.480;7.594;2022-08-19T13:26:17;33.60;64.90
25568;DHT22;13455;51.480;7.594;2022-08-19T13:28:44;33.90;75.00
25568;DHT22;13455;51.480;7.594;2022-08-19T13:31:32;34.00;63.50
25568;DHT22;13455;51.480;7.594;2022-08-19T13:34:18;34.10;61.60
25568;DHT22;13455;51.480;7.594;2022-08-19T13:36:45;34.10;62.20
25568;DHT22;13455;51.480;7.594;2022-08-19T13:44:09;35.10;61.70
25568;DHT22;13455;51.480;7.594;2022-08-19T13:49:00;35.30;55.80
25568;DHT22;13455;51.480;7.594;2022-08-19T13:51:26;35.20;56.50
25568;DHT22;13455;51.480;7.594;2022-08-19T13:53:52;35.10;55.30
25568;DHT22;13455;51.480;7.594;2022-08-19T13:56:19;35.10;55.80
25568;DHT22;13455;51.480;7.594;2022-08-19T14:01:11;35.00;57.80
25568;DHT22;13455;51.480;7.594;2022-08-19T14:03:38;35.00;57.60
25568;DHT22;13455;51.480;7.594;2022-08-19T14:08:30;35.60;56.30
25568;DHT22;13455;51.480;7.594;2022-08-19T14:13:23;36.50;56.10
25568;DHT22;13455;51.480;7.594;2022-08-19T14:15:50;36.70;54.60
25568;DHT22;13455;51.480;7.594;2022-08-19T14:23:09;37.50;87.30
25568;DHT22;13455;51.480;7.594;2022-08-19T14:25:35;37.70;51.70
25568;DHT22;13455;51.480;7.594;2022-08-19T14:28:01;38.00;50.80
25568;DHT22;13455;51.480;7.594;2022-08-19T14:30:29;38.30;88.30
25568;DHT22;13455;51.480;7.594;2022-08-19T14:32:58;38.50;48.30
25568;DHT22;13455;51.480;7.594;2022-08-19T14:35:25;38.80;48.20
25568;DHT22;13455;51.480;7.594;2022-08-19T14:37:52;39.00;47.90
25568;DHT22;13455;51.480;7.594;2022-08-19T14:40:22;39.10;48.20
25568;DHT22;13455;51.480;7.594;2022-08-19T14:43:03;39.30;44.00
25568;DHT22;13455;51.480;7.594;2022-08-19T14:45:35;39.30;45.00
25568;DHT22;13455;51.480;7.594;2022-08-19T14:48:01;39.00;42.80
25568;DHT22;13455;51.480;7.594;2022-08-19T14:50:27;38.90;43.10
25568;DHT22;13455;51.480;7.594;2022-08-19T14:53:04;38.40;42.70
25568;DHT22;13455;51.480;7.594;2022-08-19T14:55:31;37.90;44.60
25568;DHT22;13455;51.480;7.594;2022-08-19T14:57:58;37.60;45.00
25568;DHT22;13455;51.480;7.594;2022-08-19T15:00:23;37.50;46.80
25568;DHT22;13455;51.480;7.594;2022-08-19T15:02:50;37.20;46.20
25568;DHT22;13455;51.480;7.594;2022-08-19T15:05:16;37.00;46.50
25568;DHT22;13455;51.480;7.594;2022-08-19T15:07:42;36.70;47.20
25568;DHT22;13455;51.480;7.594;2022-08-19T15:10:10;36.40;48.00
25568;DHT22;13455;51.480;7.594;2022-08-19T15:12:37;35.90;47.70
25568;DHT22;13455;51.480;7.594;2022-08-19T15:15:09;35.50;48.80
25568;DHT22;13455;51.480;7.594;2022-08-19T15:17:38;35.30;49.90
25568;DHT22;13455;51.480;7.594;2022-08-19T15:20:06;35.10;49.40
25568;DHT22;13455;51.480;7.594;2022-08-19T15:22:32;34.90;49.90
25568;DHT22;13455;51.480;7.594;2022-08-19T15:24:58;34.80;51.20
25568;DHT22;13455;51.480;7.594;2022-08-19T15:27:23;34.60;50.90
25568;DHT22;13455;51.480;7.594;2022-08-19T15:29:49;34.50;50.80
25568;DHT22;13455;51.480;7.594;2022-08-19T15:32:15;34.40;51.10
25568;DHT22;13455;51.480;7.594;2022-08-19T15:34:41;34.10;50.60
25568;DHT22;13455;51.480;7.594;2022-08-19T15:37:06;34.10;51.20
25568;DHT22;13455;51.480;7.594;2022-08-19T15:39:32;33.90;51.30
25568;DHT22;13455;51.480;7.594;2022-08-19T15:41:58;33.70;51.10
25568;DHT22;13455;51.480;7.594;2022-08-19T15:54:17;32.90;88.80
25568;DHT22;13455;51.480;7.594;2022-08-19T15:56:46;32.80;52.80
25568;DHT22;13455;51.480;7.594;2022-08-19T15:59:32;32.60;52.60
25568;DHT22;13455;51.480;7.594;2022-08-19T16:02:17;32.50;53.90
25568;DHT22;13455;51.480;7.594;2022-08-19T16:07:47;32.00;94.00
25568;DHT22;13455;51.480;7.594;2022-08-19T16:10:12;32.20;91.80
25568;DHT22;13455;51.480;7.594;2022-08-19T16:12:39;32.20;74.70
25568;DHT22;13455;51.480;7.594;2022-08-19T16:15:08;32.00;57.00
25568;DHT22;13455;51.480;7.594;2022-08-19T16:17:34;31.90;55.50
25568;DHT22;13455;51.480;7.594;2022-08-19T16:20:01;31.80;56.60
25568;DHT22;13455;51.480;7.594;2022-08-19T16:22:30;31.80;55.20
25568;DHT22;13455;51.480;7.594;2022-08-19T16:24:56;31.80;54.70
25568;DHT22;13455;51.480;7.594;2022-08-19T16:27:22;31.60;55.20
25568;DHT22;13455;51.480;7.594;2022-08-19T16:29:48;31.60;55.60
25568;DHT22;13455;51.480;7.594;2022-08-19T16:32:14;31.60;56.90
25568;DHT22;13455;51.480;7.594;2022-08-19T16:34:41;31.80;91.40
25568;DHT22;13455;51.480;7.594;2022-08-19T16:37:08;31.80;90.70
25568;DHT22;13455;51.480;7.594;2022-08-19T16:39:34;31.80;90.40
25568;DHT22;13455;51.480;7.594;2022-08-19T16:42:01;31.50;90.30
25568;DHT22;13455;51.480;7.594;2022-08-19T16:44:27;31.40;55.70
25568;DHT22;13455;51.480;7.594;2022-08-19T16:46:53;31.20;55.80
25568;DHT22;13455;51.480;7.594;2022-08-19T16:51:45;30.90;77.00
25568;DHT22;13455;51.480;7.594;2022-08-19T16:54:11;30.90;56.80
25568;DHT22;13455;51.480;7.594;2022-08-19T16:56:37;30.80;59.20
25568;DHT22;13455;51.480;7.594;2022-08-19T16:59:03;30.80;78.20
25568;DHT22;13455;51.480;7.594;2022-08-19T17:01:30;30.80;69.50
25568;DHT22;13455;51.480;7.594;2022-08-19T17:16:21;30.50;58.60
25568;DHT22;13455;51.480;7.594;2022-08-19T17:28:40;29.80;59.40
25568;DHT22;13455;51.480;7.594;2022-08-19T17:43:17;29.30;61.00
25568;DHT22;13455;51.480;7.594;2022-08-19T17:55:31;28.80;62.80
25568;DHT22;13455;51.480;7.594;2022-08-19T17:57:58;28.60;63.40
25568;DHT22;13455;51.480;7.594;2022-08-19T18:05:27;28.20;97.90
25568;DHT22;13455;51.480;7.594;2022-08-19T18:07:56;28.00;64.70
25568;DHT22;13455;51.480;7.594;2022-08-19T18:20:10;27.20;65.90
25568;DHT22;13455;51.480;7.594;2022-08-19T18:37:43;26.80;70.70
25568;DHT22;13455;51.480;7.594;2022-08-19T18:58:33;26.00;75.50
25568;DHT22;13455;51.480;7.594;2022-08-19T19:01:15;26.00;76.10
25568;DHT22;13455;51.480;7.594;2022-08-19T19:11:07;25.60;78.30
25568;DHT22;13455;51.480;7.594;2022-08-19T19:13:34;25.60;79.30
25568;DHT22;13455;51.480;7.594;2022-08-19T19:40:30;24.80;86.20
25568;DHT22;13455;51.480;7.594;2022-08-19T19:42:56;24.70;87.10
25568;DHT22;13455;51.480;7.594;2022-08-19T19:55:12;24.40;99.90
25568;DHT22;13455;51.480;7.594;2022-08-19T19:57:43;23.90;90.80
25568;DHT22;13455;51.480;7.594;2022-08-19T20:07:30;24.00;93.30
25568;DHT22;13455;51.480;7.594;2022-08-19T20:20:08;23.70;97.30
25568;DHT22;13455;51.480;7.594;2022-08-19T20:56:47;22.80;99.90
25568;DHT22;13455;51.480;7.594;2022-08-19T20:59:12;22.80;99.90
25568;DHT22;13455;51.480;7.594;2022-08-19T21:01:38;22.80;99.90
25568;DHT22;13455;51.480;7.594;2022-08-19T21:18:40;22.90;99.90
25568;DHT22;13455;51.480;7.594;2022-08-19T21:21:06;22.80;99.90
25568;DHT22;13455;51.480;7.594;2022-08-19T21:23:32;22.80;99.90
25568;DHT22;13455;51.480;7.594;2022-08-19T21:25:59;22.70;99.90
25568;DHT22;13455;51.480;7.594;2022-08-19T21:30:55;22.60;99.90
